sensor_id;sensor_type;location;lat;lon;timestamp;pressure;altitude;pressure_sealevel;temperature;humidity
50310;BME280;36207;51.850;21.698;2022-09-09T00:00:11;99719.85;;;13.39;53.75
50310;BME280;36207;51.850;21.698;2022-09-09T00:03:19;99715.52;;;13.39;53.30
50310;BME280;36207;51.850;21.698;2022-09-09T00:08:27;99710.52;;;13.38;54.75
50310;BME280;36207;51.850;21.698;2022-09-09T00:11:01;99704.49;;;13.33;55.78
50310;BME280;36207;51.850;21.698;2022-09-09T00:13:38;99695.94;;;13.26;55.08
50310;BME280;36207;51.850;21.698;2022-09-09T00:16:21;99691.75;;;13.24;55.31
50310;BME280;36207;51.850;21.698;2022-09-09T00:18:57;99694.67;;;13.21;57.89
50310;BME280;36207;51.850;21.698;2022-09-09T00:21:37;99683.20;;;13.16;56.46
50310;BME280;36207;51.850;21.698;2022-09-09T00:26:55;99676.51;;;13.10;56.49
50310;BME280;36207;51.850;21.698;2022-09-09T00:29:33;99671.23;;;13.08;57.77
50310;BME280;36207;51.850;21.698;2022-09-09T00:32:13;99666.23;;;13.06;57.31
50310;BME280;36207;51.850;21.698;2022-09-09T00:37:32;99660.48;;;13.03;58.30
50310;BME280;36207;51.850;21.698;2022-09-09T00:40:16;99661.84;;;12.96;59.12
50310;BME280;36207;51.850;21.698;2022-09-09T00:42:44;99660.31;;;12.94;57.44
50310;BME280;36207;51.850;21.698;2022-09-09T00:47:50;99662.67;;;12.95;58.16
50310;BME280;36207;51.850;21.698;2022-09-09T00:55:53;99652.40;;;12.95;57.22
50310;BME280;36207;51.850;21.698;2022-09-09T00:58:22;99655.63;;;12.96;59.28
50310;BME280;36207;51.850;21.698;2022-09-09T01:00:57;99654.02;;;12.94;58.99
50310;BME280;36207;51.850;21.698;2022-09-09T01:03:46;99654.91;;;12.93;59.51
50310;BME280;36207;51.850;21.698;2022-09-09T01:06:32;99652.48;;;12.89;59.21
50310;BME280;36207;51.850;21.698;2022-09-09T01:11:49;99648.59;;;12.85;60.48
50310;BME280;36207;51.850;21.698;2022-09-09T01:17:00;99648.39;;;12.87;59.95
50310;BME280;36207;51.850;21.698;2022-09-09T01:20:00;99640.89;;;12.89;61.05
50310;BME280;36207;51.850;21.698;2022-09-09T01:22:44;99639.07;;;12.86;60.12
50310;BME280;36207;51.850;21.698;2022-09-09T01:28:19;99630.17;;;12.90;59.31
50310;BME280;36207;51.850;21.698;2022-09-09T01:30:48;99624.26;;;12.89;60.38
50310;BME280;36207;51.850;21.698;2022-09-09T01:33:16;99621.95;;;12.85;61.43
50310;BME280;36207;51.850;21.698;2022-09-09T01:35:53;99621.81;;;12.81;61.69
50310;BME280;36207;51.850;21.698;2022-09-09T01:38:22;99618.03;;;12.82;60.83
50310;BME280;36207;51.850;21.698;2022-09-09T01:40:50;99619.68;;;12.83;62.20
50310;BME280;36207;51.850;21.698;2022-09-09T01:43:20;99629.83;;;12.82;61.01
50310;BME280;36207;51.850;21.698;2022-09-09T01:45:49;99639.37;;;12.81;61.28
50310;BME280;36207;51.850;21.698;2022-09-09T01:48:18;99655.50;;;12.82;62.79
50310;BME280;36207;51.850;21.698;2022-09-09T01:50:44;99659.41;;;12.81;63.86
50310;BME280;36207;51.850;21.698;2022-09-09T01:53:11;99660.07;;;12.80;62.29
50310;BME280;36207;51.850;21.698;2022-09-09T01:55:40;99646.05;;;12.78;62.80
50310;BME280;36207;51.850;21.698;2022-09-09T02:00:37;99634.49;;;12.72;64.74
50310;BME280;36207;51.850;21.698;2022-09-09T02:03:17;99638.53;;;12.73;63.97
50310;BME280;36207;51.850;21.698;2022-09-09T02:05:50;99641.55;;;12.74;65.61
50310;BME280;36207;51.850;21.698;2022-09-09T02:08:26;99639.77;;;12.69;66.17
50310;BME280;36207;51.850;21.698;2022-09-09T02:11:16;99637.73;;;12.64;64.88
50310;BME280;36207;51.850;21.698;2022-09-09T02:13:45;99636.16;;;12.64;65.34
50310;BME280;36207;51.850;21.698;2022-09-09T02:21:29;99628.10;;;12.68;64.25
50310;BME280;36207;51.850;21.698;2022-09-09T02:23:58;99628.31;;;12.69;63.00
50310;BME280;36207;51.850;21.698;2022-09-09T02:26:26;99626.88;;;12.73;64.00
50310;BME280;36207;51.850;21.698;2022-09-09T02:28:55;99624.40;;;12.75;63.85
50310;BME280;36207;51.850;21.698;2022-09-09T02:31:24;99617.28;;;12.80;64.48
50310;BME280;36207;51.850;21.698;2022-09-09T02:33:55;99613.16;;;12.80;65.24
50310;BME280;36207;51.850;21.698;2022-09-09T02:36:24;99603.52;;;12.80;64.39
50310;BME280;36207;51.850;21.698;2022-09-09T02:38:52;99601.80;;;12.83;63.42
50310;BME280;36207;51.850;21.698;2022-09-09T02:41:24;99597.63;;;12.87;63.58
50310;BME280;36207;51.850;21.698;2022-09-09T02:43:51;99596.36;;;12.89;63.62
50310;BME280;36207;51.850;21.698;2022-09-09T02:46:36;99602.26;;;12.90;62.80
50310;BME280;36207;51.850;21.698;2022-09-09T02:49:16;99604.49;;;12.95;63.44
50310;BME280;36207;51.850;21.698;2022-09-09T02:54:31;99609.70;;;13.02;62.72
50310;BME280;36207;51.850;21.698;2022-09-09T02:57:08;99609.20;;;13.05;62.66
50310;BME280;36207;51.850;21.698;2022-09-09T02:59:37;99607.60;;;13.09;62.43
50310;BME280;36207;51.850;21.698;2022-09-09T03:02:03;99602.89;;;13.12;62.98
50310;BME280;36207;51.850;21.698;2022-09-09T03:04:31;99607.92;;;13.16;62.77
50310;BME280;36207;51.850;21.698;2022-09-09T03:06:58;99611.52;;;13.22;62.58
50310;BME280;36207;51.850;21.698;2022-09-09T03:09:24;99616.05;;;13.25;62.71
50310;BME280;36207;51.850;21.698;2022-09-09T03:11:52;99616.90;;;13.25;63.34
50310;BME280;36207;51.850;21.698;2022-09-09T03:14:19;99623.60;;;13.28;63.28
50310;BME280;36207;51.850;21.698;2022-09-09T03:16:47;99629.13;;;13.29;63.35
50310;BME280;36207;51.850;21.698;2022-09-09T03:19:16;99631.80;;;13.30;63.31
50310;BME280;36207;51.850;21.698;2022-09-09T03:21:42;99636.42;;;13.32;63.53
50310;BME280;36207;51.850;21.698;2022-09-09T03:24:09;99643.02;;;13.32;63.32
50310;BME280;36207;51.850;21.698;2022-09-09T03:26:35;99645.13;;;13.33;62.93
50310;BME280;36207;51.850;21.698;2022-09-09T03:29:01;99643.23;;;13.36;63.13
50310;BME280;36207;51.850;21.698;2022-09-09T03:31:27;99639.03;;;13.39;63.39
50310;BME280;36207;51.850;21.698;2022-09-09T03:33:57;99639.30;;;13.38;63.53
50310;BME280;36207;51.850;21.698;2022-09-09T03:36:26;99639.19;;;13.36;64.29
50310;BME280;36207;51.850;21.698;2022-09-09T03:38:52;99636.75;;;13.36;63.52
50310;BME280;36207;51.850;21.698;2022-09-09T03:41:21;99638.29;;;13.39;63.98
50310;BME280;36207;51.850;21.698;2022-09-09T03:43:53;99637.84;;;13.40;63.75
50310;BME280;36207;51.850;21.698;2022-09-09T03:46:21;99630.36;;;13.43;63.62
50310;BME280;36207;51.850;21.698;2022-09-09T03:48:48;99626.55;;;13.44;63.41
50310;BME280;36207;51.850;21.698;2022-09-09T03:51:15;99631.06;;;13.45;63.43
50310;BME280;36207;51.850;21.698;2022-09-09T03:53:42;99631.10;;;13.48;63.55
50310;BME280;36207;51.850;21.698;2022-09-09T03:56:09;99631.18;;;13.51;63.67
50310;BME280;36207;51.850;21.698;2022-09-09T03:58:36;99630.19;;;13.53;63.68
50310;BME280;36207;51.850;21.698;2022-09-09T04:03:36;99631.30;;;13.50;64.65
50310;BME280;36207;51.850;21.698;2022-09-09T04:06:04;99632.79;;;13.48;65.49
50310;BME280;36207;51.850;21.698;2022-09-09T04:08:32;99628.21;;;13.48;63.94
50310;BME280;36207;51.850;21.698;2022-09-09T04:10:59;99628.84;;;13.51;64.39
50310;BME280;36207;51.850;21.698;2022-09-09T04:13:27;99627.71;;;13.54;63.74
50310;BME280;36207;51.850;21.698;2022-09-09T04:15:56;99629.33;;;13.57;65.09
50310;BME280;36207;51.850;21.698;2022-09-09T04:18:23;99622.26;;;13.55;64.87
50310;BME280;36207;51.850;21.698;2022-09-09T04:20:50;99620.60;;;13.55;64.38
50310;BME280;36207;51.850;21.698;2022-09-09T04:23:20;99620.20;;;13.55;64.41
50310;BME280;36207;51.850;21.698;2022-09-09T04:25:51;99621.77;;;13.57;64.62
50310;BME280;36207;51.850;21.698;2022-09-09T04:28:19;99622.75;;;13.55;64.69
50310;BME280;36207;51.850;21.698;2022-09-09T04:30:46;99620.16;;;13.54;64.42
50310;BME280;36207;51.850;21.698;2022-09-09T04:33:13;99617.64;;;13.57;64.51
50310;BME280;36207;51.850;21.698;2022-09-09T04:35:47;99620.40;;;13.60;64.77
50310;BME280;36207;51.850;21.698;2022-09-09T04:38:15;99621.63;;;13.63;64.66
50310;BME280;36207;51.850;21.698;2022-09-09T04:40:46;99626.46;;;13.64;64.82
50310;BME280;36207;51.850;21.698;2022-09-09T04:43:14;99631.83;;;13.63;65.98
50310;BME280;36207;51.850;21.698;2022-09-09T04:45:41;99631.63;;;13.58;65.29
50310;BME280;36207;51.850;21.698;2022-09-09T04:48:08;99633.11;;;13.56;65.91
50310;BME280;36207;51.850;21.698;2022-09-09T04:50:35;99637.82;;;13.55;65.43
50310;BME280;36207;51.850;21.698;2022-09-09T04:53:05;99640.83;;;13.55;65.12
50310;BME280;36207;51.850;21.698;2022-09-09T04:55:32;99644.95;;;13.56;65.13
50310;BME280;36207;51.850;21.698;2022-09-09T04:58:08;99650.95;;;13.58;65.53
50310;BME280;36207;51.850;21.698;2022-09-09T05:00:35;99650.77;;;13.56;65.85
50310;BME280;36207;51.850;21.698;2022-09-09T05:03:04;99649.70;;;13.56;65.26
50310;BME280;36207;51.850;21.698;2022-09-09T05:05:32;99652.05;;;13.59;66.03
50310;BME280;36207;51.850;21.698;2022-09-09T05:08:07;99651.65;;;13.57;65.37
50310;BME280;36207;51.850;21.698;2022-09-09T05:10:38;99656.56;;;13.59;65.25
50310;BME280;36207;51.850;21.698;2022-09-09T05:13:04;99660.64;;;13.62;65.80
50310;BME280;36207;51.850;21.698;2022-09-09T05:15:31;99663.52;;;13.61;65.61
50310;BME280;36207;51.850;21.698;2022-09-09T05:18:01;99668.89;;;13.61;65.76
50310;BME280;36207;51.850;21.698;2022-09-09T05:20:28;99666.84;;;13.58;66.55
50310;BME280;36207;51.850;21.698;2022-09-09T05:22:55;99661.54;;;13.55;66.51
50310;BME280;36207;51.850;21.698;2022-09-09T05:25:23;99658.37;;;13.55;66.09
50310;BME280;36207;51.850;21.698;2022-09-09T05:27:52;99658.42;;;13.57;65.59
50310;BME280;36207;51.850;21.698;2022-09-09T05:30:20;99662.65;;;13.60;65.51
50310;BME280;36207;51.850;21.698;2022-09-09T05:32:48;99663.11;;;13.62;65.32
50310;BME280;36207;51.850;21.698;2022-09-09T05:35:14;99668.90;;;13.64;65.33
50310;BME280;36207;51.850;21.698;2022-09-09T05:37:41;99667.70;;;13.66;65.42
50310;BME280;36207;51.850;21.698;2022-09-09T05:40:07;99663.36;;;13.69;65.50
50310;BME280;36207;51.850;21.698;2022-09-09T05:42:34;99665.29;;;13.72;65.26
50310;BME280;36207;51.850;21.698;2022-09-09T05:45:00;99665.99;;;13.74;66.30
50310;BME280;36207;51.850;21.698;2022-09-09T05:47:26;99663.55;;;13.71;66.13
50310;BME280;36207;51.850;21.698;2022-09-09T05:49:54;99668.92;;;13.69;65.87
50310;BME280;36207;51.850;21.698;2022-09-09T05:52:21;99668.77;;;13.70;65.45
50310;BME280;36207;51.850;21.698;2022-09-09T05:54:47;99670.83;;;13.71;65.61
50310;BME280;36207;51.850;21.698;2022-09-09T05:57:13;99674.84;;;13.71;66.52
50310;BME280;36207;51.850;21.698;2022-09-09T05:59:39;99676.23;;;13.68;66.27
50310;BME280;36207;51.850;21.698;2022-09-09T06:02:05;99678.85;;;13.69;66.24
50310;BME280;36207;51.850;21.698;2022-09-09T06:04:31;99680.45;;;13.70;66.08
50310;BME280;36207;51.850;21.698;2022-09-09T06:06:57;99680.82;;;13.69;66.63
50310;BME280;36207;51.850;21.698;2022-09-09T06:09:24;99687.63;;;13.67;66.28
50310;BME280;36207;51.850;21.698;2022-09-09T06:11:51;99693.56;;;13.67;66.17
50310;BME280;36207;51.850;21.698;2022-09-09T06:14:17;99694.36;;;13.68;66.21
50310;BME280;36207;51.850;21.698;2022-09-09T06:16:43;99697.58;;;13.70;66.75
50310;BME280;36207;51.850;21.698;2022-09-09T06:19:10;99702.00;;;13.69;67.58
50310;BME280;36207;51.850;21.698;2022-09-09T06:21:38;99705.55;;;13.63;67.98
50310;BME280;36207;51.850;21.698;2022-09-09T06:24:06;99705.64;;;13.58;67.38
50310;BME280;36207;51.850;21.698;2022-09-09T06:26:40;99709.17;;;13.59;66.97
50310;BME280;36207;51.850;21.698;2022-09-09T06:29:07;99706.29;;;13.61;66.59
50310;BME280;36207;51.850;21.698;2022-09-09T06:31:35;99705.71;;;13.63;66.68
50310;BME280;36207;51.850;21.698;2022-09-09T06:34:05;99709.02;;;13.65;66.70
50310;BME280;36207;51.850;21.698;2022-09-09T06:36:33;99711.13;;;13.67;67.29
50310;BME280;36207;51.850;21.698;2022-09-09T06:39:00;99709.77;;;13.65;67.84
50310;BME280;36207;51.850;21.698;2022-09-09T06:41:30;99707.94;;;13.61;68.00
50310;BME280;36207;51.850;21.698;2022-09-09T06:43:57;99707.20;;;13.57;68.05
50310;BME280;36207;51.850;21.698;2022-09-09T06:46:26;99708.27;;;13.55;68.05
50310;BME280;36207;51.850;21.698;2022-09-09T06:48:56;99708.52;;;13.54;67.79
50310;BME280;36207;51.850;21.698;2022-09-09T06:51:29;99710.55;;;13.55;67.81
50310;BME280;36207;51.850;21.698;2022-09-09T06:53:58;99711.48;;;13.56;67.38
50310;BME280;36207;51.850;21.698;2022-09-09T06:56:30;99716.03;;;13.59;67.99
50310;BME280;36207;51.850;21.698;2022-09-09T06:58:59;99719.41;;;13.62;67.47
50310;BME280;36207;51.850;21.698;2022-09-09T07:01:34;99720.41;;;13.65;67.59
50310;BME280;36207;51.850;21.698;2022-09-09T07:04:01;99721.48;;;13.68;68.03
50310;BME280;36207;51.850;21.698;2022-09-09T07:06:30;99723.79;;;13.69;67.81
50310;BME280;36207;51.850;21.698;2022-09-09T07:09:02;99722.96;;;13.69;67.78
50310;BME280;36207;51.850;21.698;2022-09-09T07:11:32;99725.40;;;13.71;67.41
50310;BME280;36207;51.850;21.698;2022-09-09T07:13:59;99727.84;;;13.74;68.14
50310;BME280;36207;51.850;21.698;2022-09-09T07:16:26;99727.63;;;13.73;68.07
50310;BME280;36207;51.850;21.698;2022-09-09T07:18:53;99727.91;;;13.68;68.80
50310;BME280;36207;51.850;21.698;2022-09-09T07:21:27;99727.26;;;13.65;68.28
50310;BME280;36207;51.850;21.698;2022-09-09T07:23:54;99730.56;;;13.67;68.35
50310;BME280;36207;51.850;21.698;2022-09-09T07:26:23;99731.27;;;13.71;67.71
50310;BME280;36207;51.850;21.698;2022-09-09T07:28:51;99738.70;;;13.77;68.19
50310;BME280;36207;51.850;21.698;2022-09-09T07:31:23;99741.66;;;13.80;69.21
50310;BME280;36207;51.850;21.698;2022-09-09T07:33:50;99750.05;;;13.77;69.35
50310;BME280;36207;51.850;21.698;2022-09-09T07:38:53;99757.77;;;13.79;69.58
50310;BME280;36207;51.850;21.698;2022-09-09T07:43:56;99765.20;;;13.78;69.46
50310;BME280;36207;51.850;21.698;2022-09-09T07:46:24;99765.29;;;13.76;69.17
50310;BME280;36207;51.850;21.698;2022-09-09T07:48:53;99767.14;;;13.77;68.98
50310;BME280;36207;51.850;21.698;2022-09-09T07:51:26;99766.69;;;13.78;69.00
50310;BME280;36207;51.850;21.698;2022-09-09T07:53:58;99763.27;;;13.82;69.18
50310;BME280;36207;51.850;21.698;2022-09-09T07:56:27;99763.21;;;13.85;69.71
50310;BME280;36207;51.850;21.698;2022-09-09T07:58:55;99765.98;;;13.84;69.73
50310;BME280;36207;51.850;21.698;2022-09-09T08:01:28;99766.94;;;13.85;69.06
50310;BME280;36207;51.850;21.698;2022-09-09T08:03:56;99770.66;;;13.90;69.02
50310;BME280;36207;51.850;21.698;2022-09-09T08:06:26;99769.20;;;13.94;69.52
50310;BME280;36207;51.850;21.698;2022-09-09T08:08:54;99766.81;;;13.96;69.57
50310;BME280;36207;51.850;21.698;2022-09-09T08:11:22;99767.72;;;13.98;69.38
50310;BME280;36207;51.850;21.698;2022-09-09T08:13:50;99763.80;;;14.02;68.95
50310;BME280;36207;51.850;21.698;2022-09-09T08:16:26;99768.67;;;14.08;69.02
50310;BME280;36207;51.850;21.698;2022-09-09T08:18:53;99776.42;;;14.13;69.66
50310;BME280;36207;51.850;21.698;2022-09-09T08:21:27;99774.61;;;14.15;68.98
50310;BME280;36207;51.850;21.698;2022-09-09T08:23:55;99774.27;;;14.18;69.32
50310;BME280;36207;51.850;21.698;2022-09-09T08:26:27;99777.11;;;14.21;69.40
50310;BME280;36207;51.850;21.698;2022-09-09T08:28:56;99780.08;;;14.24;69.60
50310;BME280;36207;51.850;21.698;2022-09-09T08:31:31;99780.04;;;14.26;69.50
50310;BME280;36207;51.850;21.698;2022-09-09T08:33:59;99778.11;;;14.24;70.37
50310;BME280;36207;51.850;21.698;2022-09-09T08:36:29;99779.02;;;14.22;70.58
50310;BME280;36207;51.850;21.698;2022-09-09T08:38:57;99786.13;;;14.25;70.10
50310;BME280;36207;51.850;21.698;2022-09-09T08:44:23;99791.17;;;14.25;70.23
50310;BME280;36207;51.850;21.698;2022-09-09T08:52:44;99803.33;;;14.13;71.78
50310;BME280;36207;51.850;21.698;2022-09-09T08:57:41;99805.80;;;14.11;71.88
50310;BME280;36207;51.850;21.698;2022-09-09T09:00:10;99804.02;;;14.06;71.67
50310;BME280;36207;51.850;21.698;2022-09-09T09:05:54;99801.86;;;14.12;71.00
50310;BME280;36207;51.850;21.698;2022-09-09T09:11:17;99805.88;;;14.18;72.63
50310;BME280;36207;51.850;21.698;2022-09-09T09:13:52;99807.56;;;14.26;71.59
50310;BME280;36207;51.850;21.698;2022-09-09T09:16:33;99812.27;;;14.33;72.01
50310;BME280;36207;51.850;21.698;2022-09-09T09:19:01;99812.80;;;14.33;72.04
50310;BME280;36207;51.850;21.698;2022-09-09T09:21:42;99818.02;;;14.30;72.66
50310;BME280;36207;51.850;21.698;2022-09-09T09:24:20;99816.86;;;14.25;71.35
50310;BME280;36207;51.850;21.698;2022-09-09T09:26:48;99815.16;;;14.27;72.86
50310;BME280;36207;51.850;21.698;2022-09-09T09:29:16;99814.30;;;14.23;72.22
50310;BME280;36207;51.850;21.698;2022-09-09T09:31:51;99816.89;;;14.22;72.16
50310;BME280;36207;51.850;21.698;2022-09-09T09:34:18;99823.72;;;14.21;73.50
50310;BME280;36207;51.850;21.698;2022-09-09T09:36:52;99823.36;;;14.16;72.91
50310;BME280;36207;51.850;21.698;2022-09-09T09:39:24;99827.61;;;14.16;71.99
50310;BME280;36207;51.850;21.698;2022-09-09T09:41:50;99828.80;;;14.19;72.66
50310;BME280;36207;51.850;21.698;2022-09-09T09:44:31;99831.95;;;14.24;72.56
50310;BME280;36207;51.850;21.698;2022-09-09T09:47:16;99833.84;;;14.27;72.55
50310;BME280;36207;51.850;21.698;2022-09-09T09:49:58;99835.90;;;14.30;72.11
50310;BME280;36207;51.850;21.698;2022-09-09T09:52:32;99839.17;;;14.30;73.13
50310;BME280;36207;51.850;21.698;2022-09-09T09:55:04;99840.58;;;14.27;74.08
50310;BME280;36207;51.850;21.698;2022-09-09T09:57:33;99843.98;;;14.26;73.11
50310;BME280;36207;51.850;21.698;2022-09-09T10:00:15;99847.48;;;14.28;72.75
50310;BME280;36207;51.850;21.698;2022-09-09T10:02:49;99848.46;;;14.31;72.17
50310;BME280;36207;51.850;21.698;2022-09-09T10:05:21;99850.41;;;14.34;73.59
50310;BME280;36207;51.850;21.698;2022-09-09T10:13:42;99849.12;;;14.35;72.58
50310;BME280;36207;51.850;21.698;2022-09-09T10:16:25;99852.02;;;14.37;72.29
50310;BME280;36207;51.850;21.698;2022-09-09T10:19:04;99853.42;;;14.44;72.43
50310;BME280;36207;51.850;21.698;2022-09-09T10:27:27;99862.48;;;14.44;72.53
50310;BME280;36207;51.850;21.698;2022-09-09T10:30:16;99866.22;;;14.48;72.14
50310;BME280;36207;51.850;21.698;2022-09-09T10:38:16;99866.40;;;14.44;73.50
50310;BME280;36207;51.850;21.698;2022-09-09T10:41:11;99868.05;;;14.40;73.66
50310;BME280;36207;51.850;21.698;2022-09-09T10:46:04;99868.55;;;14.34;72.90
50310;BME280;36207;51.850;21.698;2022-09-09T10:48:45;99872.79;;;14.34;72.52
50310;BME280;36207;51.850;21.698;2022-09-09T10:56:57;99883.75;;;14.41;72.85
50310;BME280;36207;51.850;21.698;2022-09-09T10:59:29;99888.06;;;14.43;73.66
50310;BME280;36207;51.850;21.698;2022-09-09T11:02:21;99891.23;;;14.42;73.55
50310;BME280;36207;51.850;21.698;2022-09-09T11:07:55;99890.41;;;14.44;73.64
50310;BME280;36207;51.850;21.698;2022-09-09T11:13:04;99890.45;;;14.48;73.73
50310;BME280;36207;51.850;21.698;2022-09-09T11:15:39;99892.11;;;14.50;72.91
50310;BME280;36207;51.850;21.698;2022-09-09T11:18:12;99894.98;;;14.56;73.37
50310;BME280;36207;51.850;21.698;2022-09-09T11:20:40;99897.20;;;14.63;72.86
50310;BME280;36207;51.850;21.698;2022-09-09T11:23:39;99898.27;;;14.71;72.44
50310;BME280;36207;51.850;21.698;2022-09-09T11:26:07;99898.75;;;14.79;72.83
50310;BME280;36207;51.850;21.698;2022-09-09T11:36:43;99910.42;;;14.81;72.33
50310;BME280;36207;51.850;21.698;2022-09-09T11:39:24;99911.35;;;14.84;72.68
50310;BME280;36207;51.850;21.698;2022-09-09T11:42:19;99912.27;;;14.84;72.78
50310;BME280;36207;51.850;21.698;2022-09-09T11:44:46;99912.85;;;14.84;72.45
50310;BME280;36207;51.850;21.698;2022-09-09T11:47:27;99918.09;;;14.86;72.55
50310;BME280;36207;51.850;21.698;2022-09-09T11:52:43;99916.23;;;14.91;73.47
50310;BME280;36207;51.850;21.698;2022-09-09T11:55:31;99917.84;;;14.87;72.88
50310;BME280;36207;51.850;21.698;2022-09-09T11:58:00;99918.60;;;14.84;73.51
50310;BME280;36207;51.850;21.698;2022-09-09T12:00:41;99924.35;;;14.81;73.25
50310;BME280;36207;51.850;21.698;2022-09-09T12:03:38;99925.59;;;14.81;74.04
50310;BME280;36207;51.850;21.698;2022-09-09T12:06:20;99925.17;;;14.79;73.57
50310;BME280;36207;51.850;21.698;2022-09-09T12:08:57;99924.02;;;14.78;73.08
50310;BME280;36207;51.850;21.698;2022-09-09T12:11:30;99925.36;;;14.78;73.70
50310;BME280;36207;51.850;21.698;2022-09-09T12:13:58;99921.79;;;14.79;73.02
50310;BME280;36207;51.850;21.698;2022-09-09T12:16:35;99923.80;;;14.84;73.18
50310;BME280;36207;51.850;21.698;2022-09-09T12:19:16;99926.16;;;14.87;74.01
50310;BME280;36207;51.850;21.698;2022-09-09T12:27:28;99917.60;;;14.83;73.72
50310;BME280;36207;51.850;21.698;2022-09-09T12:32:34;99918.98;;;14.94;72.91
50310;BME280;36207;51.850;21.698;2022-09-09T12:35:09;99923.45;;;14.98;73.26
50310;BME280;36207;51.850;21.698;2022-09-09T12:37:39;99928.66;;;15.02;73.17
50310;BME280;36207;51.850;21.698;2022-09-09T12:40:24;99933.90;;;15.08;73.03
50310;BME280;36207;51.850;21.698;2022-09-09T12:42:51;99936.83;;;15.10;72.92
50310;BME280;36207;51.850;21.698;2022-09-09T12:45:25;99933.35;;;15.12;72.92
50310;BME280;36207;51.850;21.698;2022-09-09T12:48:05;99935.86;;;15.14;72.58
50310;BME280;36207;51.850;21.698;2022-09-09T12:50:38;99938.95;;;15.17;72.53
50310;BME280;36207;51.850;21.698;2022-09-09T12:53:35;99937.30;;;15.18;72.58
50310;BME280;36207;51.850;21.698;2022-09-09T12:56:05;99936.31;;;15.19;72.68
50310;BME280;36207;51.850;21.698;2022-09-09T12:58:36;99936.23;;;15.18;72.63
50310;BME280;36207;51.850;21.698;2022-09-09T13:01:04;99935.90;;;15.18;73.20
50310;BME280;36207;51.850;21.698;2022-09-09T13:03:33;99934.79;;;15.13;72.97
50310;BME280;36207;51.850;21.698;2022-09-09T13:06:19;99931.19;;;15.13;72.56
50310;BME280;36207;51.850;21.698;2022-09-09T13:08:51;99926.67;;;15.15;72.59
50310;BME280;36207;51.850;21.698;2022-09-09T13:11:22;99925.73;;;15.14;72.37
50310;BME280;36207;51.850;21.698;2022-09-09T13:13:54;99927.67;;;15.14;72.53
50310;BME280;36207;51.850;21.698;2022-09-09T13:16:29;99927.96;;;15.14;72.73
50310;BME280;36207;51.850;21.698;2022-09-09T13:19:07;99930.48;;;15.16;72.87
50310;BME280;36207;51.850;21.698;2022-09-09T13:21:35;99931.89;;;15.15;72.70
50310;BME280;36207;51.850;21.698;2022-09-09T13:29:23;99924.52;;;15.17;72.54
50310;BME280;36207;51.850;21.698;2022-09-09T13:31:50;99919.13;;;15.20;72.84
50310;BME280;36207;51.850;21.698;2022-09-09T13:34:29;99913.60;;;15.18;72.58
50310;BME280;36207;51.850;21.698;2022-09-09T13:37:01;99914.83;;;15.17;73.01
50310;BME280;36207;51.850;21.698;2022-09-09T13:39:28;99916.83;;;15.15;73.23
50310;BME280;36207;51.850;21.698;2022-09-09T13:41:55;99921.11;;;15.11;73.09
50310;BME280;36207;51.850;21.698;2022-09-09T13:44:25;99917.70;;;15.11;72.71
50310;BME280;36207;51.850;21.698;2022-09-09T13:47:17;99913.81;;;15.12;73.06
50310;BME280;36207;51.850;21.698;2022-09-09T13:49:45;99910.63;;;15.14;73.06
50310;BME280;36207;51.850;21.698;2022-09-09T13:52:17;99907.42;;;15.15;73.34
50310;BME280;36207;51.850;21.698;2022-09-09T13:54:51;99905.73;;;15.17;73.21
50310;BME280;36207;51.850;21.698;2022-09-09T13:57:23;99906.69;;;15.21;73.29
50310;BME280;36207;51.850;21.698;2022-09-09T13:59:52;99906.13;;;15.24;72.99
50310;BME280;36207;51.850;21.698;2022-09-09T14:02:20;99905.45;;;15.28;73.40
50310;BME280;36207;51.850;21.698;2022-09-09T14:04:48;99904.56;;;15.33;72.89
50310;BME280;36207;51.850;21.698;2022-09-09T14:07:17;99906.20;;;15.37;72.97
50310;BME280;36207;51.850;21.698;2022-09-09T14:09:44;99910.50;;;15.38;72.85
50310;BME280;36207;51.850;21.698;2022-09-09T14:12:16;99912.73;;;15.42;72.46
50310;BME280;36207;51.850;21.698;2022-09-09T14:14:43;99919.26;;;15.45;72.61
50310;BME280;36207;51.850;21.698;2022-09-09T14:17:09;99918.19;;;15.45;72.95
50310;BME280;36207;51.850;21.698;2022-09-09T14:19:35;99918.73;;;15.40;73.26
50310;BME280;36207;51.850;21.698;2022-09-09T14:22:03;99919.91;;;15.34;73.52
50310;BME280;36207;51.850;21.698;2022-09-09T14:24:29;99925.85;;;15.27;72.95
50310;BME280;36207;51.850;21.698;2022-09-09T14:26:55;99930.58;;;15.25;73.33
50310;BME280;36207;51.850;21.698;2022-09-09T14:29:21;99924.98;;;15.19;73.10
50310;BME280;36207;51.850;21.698;2022-09-09T14:31:47;99924.02;;;15.20;72.99
50310;BME280;36207;51.850;21.698;2022-09-09T14:34:14;99924.40;;;15.19;72.95
50310;BME280;36207;51.850;21.698;2022-09-09T14:36:40;99925.94;;;15.16;72.79
50310;BME280;36207;51.850;21.698;2022-09-09T14:39:07;99931.48;;;15.16;73.26
50310;BME280;36207;51.850;21.698;2022-09-09T14:41:34;99932.51;;;15.15;73.50
50310;BME280;36207;51.850;21.698;2022-09-09T14:44:00;99932.67;;;15.14;73.25
50310;BME280;36207;51.850;21.698;2022-09-09T14:46:26;99928.96;;;15.13;73.32
50310;BME280;36207;51.850;21.698;2022-09-09T14:48:52;99930.45;;;15.11;73.31
50310;BME280;36207;51.850;21.698;2022-09-09T14:51:22;99930.21;;;15.10;73.39
50310;BME280;36207;51.850;21.698;2022-09-09T14:53:53;99932.73;;;15.10;73.73
50310;BME280;36207;51.850;21.698;2022-09-09T14:56:22;99928.88;;;15.09;73.57
50310;BME280;36207;51.850;21.698;2022-09-09T14:58:50;99923.79;;;15.11;73.27
50310;BME280;36207;51.850;21.698;2022-09-09T15:01:18;99924.73;;;15.12;73.20
50310;BME280;36207;51.850;21.698;2022-09-09T15:03:51;99927.13;;;15.14;73.09
50310;BME280;36207;51.850;21.698;2022-09-09T15:06:18;99932.42;;;15.19;73.22